sensor_id;sensor_type;location;lat;lon;timestamp;P1;durP1;ratioP1;P2;durP2;ratioP2
68216;SDS011;55037;52.354;4.992;2023-05-07T00:00:08;69.63;;;33.23;;
68216;SDS011;55037;52.354;4.992;2023-05-07T00:02:36;60.38;;;31.38;;
68216;SDS011;55037;52.354;4.992;2023-05-07T00:05:04;70.72;;;29.63;;
68216;SDS011;55037;52.354;4.992;2023-05-07T00:07:32;64.60;;;31.02;;
68216;SDS011;55037;52.354;4.992;2023-05-07T00:09:59;52.35;;;26.38;;
68216;SDS011;55037;52.354;4.992;2023-05-07T00:12:26;63.27;;;31.03;;
68216;SDS011;55037;52.354;4.992;2023-05-07T00:14:54;56.13;;;30.15;;
68216;SDS011;55037;52.354;4.992;2023-05-07T00:17:21;60.63;;;31.42;;
68216;SDS011;55037;52.354;4.992;2023-05-07T00:19:48;46.97;;;26.25;;
68216;SDS011;55037;52.354;4.992;2023-05-07T00:22:16;58.15;;;30.25;;
68216;SDS011;55037;52.354;4.992;2023-05-07T00:24:43;53.37;;;29.93;;
68216;SDS011;55037;52.354;4.992;2023-05-07T00:27:10;52.45;;;27.75;;
68216;SDS011;55037;52.354;4.992;2023-05-07T00:29:37;56.42;;;29.63;;
68216;SDS011;55037;52.354;4.992;2023-05-07T00:32:05;74.43;;;33.20;;
68216;SDS011;55037;52.354;4.992;2023-05-07T00:34:32;67.63;;;31.33;;
68216;SDS011;55037;52.354;4.992;2023-05-07T00:37:00;65.90;;;30.53;;
68216;SDS011;55037;52.354;4.992;2023-05-07T00:39:30;68.43;;;32.22;;
68216;SDS011;55037;52.354;4.992;2023-05-07T00:41:57;58.25;;;30.33;;
68216;SDS011;55037;52.354;4.992;2023-05-07T00:44:25;66.22;;;31.58;;
68216;SDS011;55037;52.354;4.992;2023-05-07T00:46:52;75.97;;;33.55;;
68216;SDS011;55037;52.354;4.992;2023-05-07T00:49:20;73.27;;;31.57;;
68216;SDS011;55037;52.354;4.992;2023-05-07T00:51:48;71.22;;;28.50;;
68216;SDS011;55037;52.354;4.992;2023-05-07T00:54:17;78.07;;;32.85;;
68216;SDS011;55037;52.354;4.992;2023-05-07T00:56:44;70.07;;;31.88;;
68216;SDS011;55037;52.354;4.992;2023-05-07T00:59:12;65.53;;;31.58;;
68216;SDS011;55037;52.354;4.992;2023-05-07T01:01:39;66.43;;;30.13;;
68216;SDS011;55037;52.354;4.992;2023-05-07T01:04:07;59.10;;;26.33;;
68216;SDS011;55037;52.354;4.992;2023-05-07T01:06:38;60.55;;;30.45;;
68216;SDS011;55037;52.354;4.992;2023-05-07T01:09:06;39.95;;;22.13;;
68216;SDS011;55037;52.354;4.992;2023-05-07T01:11:33;56.00;;;26.02;;
68216;SDS011;55037;52.354;4.992;2023-05-07T01:14:01;45.57;;;25.80;;
68216;SDS011;55037;52.354;4.992;2023-05-07T01:16:29;51.95;;;25.98;;
68216;SDS011;55037;52.354;4.992;2023-05-07T01:18:58;46.63;;;25.70;;
68216;SDS011;55037;52.354;4.992;2023-05-07T01:21:27;37.97;;;22.05;;
68216;SDS011;55037;52.354;4.992;2023-05-07T01:24:03;42.15;;;25.75;;
68216;SDS011;55037;52.354;4.992;2023-05-07T01:26:32;46.80;;;27.10;;
68216;SDS011;55037;52.354;4.992;2023-05-07T01:28:59;46.00;;;26.95;;
68216;SDS011;55037;52.354;4.992;2023-05-07T01:31:27;45.28;;;25.15;;
68216;SDS011;55037;52.354;4.992;2023-05-07T01:33:55;41.97;;;24.73;;
68216;SDS011;55037;52.354;4.992;2023-05-07T01:36:25;47.72;;;26.98;;
68216;SDS011;55037;52.354;4.992;2023-05-07T01:38:53;31.50;;;19.53;;
68216;SDS011;55037;52.354;4.992;2023-05-07T01:41:21;37.13;;;22.38;;
68216;SDS011;55037;52.354;4.992;2023-05-07T01:43:48;36.13;;;23.35;;
68216;SDS011;55037;52.354;4.992;2023-05-07T01:46:18;38.55;;;23.15;;
68216;SDS011;55037;52.354;4.992;2023-05-07T01:48:47;40.08;;;23.27;;
68216;SDS011;55037;52.354;4.992;2023-05-07T01:51:16;35.63;;;22.40;;
68216;SDS011;55037;52.354;4.992;2023-05-07T01:53:44;40.47;;;24.55;;
68216;SDS011;55037;52.354;4.992;2023-05-07T01:56:14;31.23;;;21.27;;
68216;SDS011;55037;52.354;4.992;2023-05-07T01:58:42;32.00;;;19.58;;
68216;SDS011;55037;52.354;4.992;2023-05-07T02:01:09;32.75;;;18.05;;
68216;SDS011;55037;52.354;4.992;2023-05-07T02:03:37;26.27;;;16.03;;
68216;SDS011;55037;52.354;4.992;2023-05-07T02:06:11;30.23;;;19.55;;
68216;SDS011;55037;52.354;4.992;2023-05-07T02:08:39;35.10;;;21.17;;
68216;SDS011;55037;52.354;4.992;2023-05-07T02:11:07;28.63;;;17.45;;
68216;SDS011;55037;52.354;4.992;2023-05-07T02:13:35;30.15;;;19.10;;
68216;SDS011;55037;52.354;4.992;2023-05-07T02:16:03;31.17;;;21.13;;
68216;SDS011;55037;52.354;4.992;2023-05-07T02:18:31;30.48;;;19.60;;
68216;SDS011;55037;52.354;4.992;2023-05-07T02:20:58;25.27;;;17.25;;
68216;SDS011;55037;52.354;4.992;2023-05-07T02:23:26;25.80;;;17.48;;
68216;SDS011;55037;52.354;4.992;2023-05-07T02:25:53;29.38;;;17.05;;
68216;SDS011;55037;52.354;4.992;2023-05-07T02:28:20;24.27;;;16.40;;
68216;SDS011;55037;52.354;4.992;2023-05-07T02:30:56;26.58;;;16.70;;
68216;SDS011;55037;52.354;4.992;2023-05-07T02:33:25;21.75;;;15.43;;
68216;SDS011;55037;52.354;4.992;2023-05-07T02:35:53;24.45;;;14.63;;
68216;SDS011;55037;52.354;4.992;2023-05-07T02:38:20;20.63;;;14.50;;
68216;SDS011;55037;52.354;4.992;2023-05-07T02:40:47;18.27;;;13.17;;
68216;SDS011;55037;52.354;4.992;2023-05-07T02:43:15;18.30;;;12.10;;
68216;SDS011;55037;52.354;4.992;2023-05-07T02:45:45;17.15;;;11.50;;
68216;SDS011;55037;52.354;4.992;2023-05-07T02:48:14;17.25;;;12.27;;
68216;SDS011;55037;52.354;4.992;2023-05-07T02:50:42;16.88;;;11.05;;
68216;SDS011;55037;52.354;4.992;2023-05-07T02:53:11;13.07;;;8.30;;
68216;SDS011;55037;52.354;4.992;2023-05-07T02:55:38;17.60;;;9.68;;
68216;SDS011;55037;52.354;4.992;2023-05-07T02:58:06;14.57;;;9.13;;
68216;SDS011;55037;52.354;4.992;2023-05-07T03:00:35;14.77;;;9.00;;
68216;SDS011;55037;52.354;4.992;2023-05-07T03:03:18;14.48;;;9.52;;
68216;SDS011;55037;52.354;4.992;2023-05-07T03:05:46;16.43;;;11.50;;
68216;SDS011;55037;52.354;4.992;2023-05-07T03:08:13;18.33;;;11.20;;
68216;SDS011;55037;52.354;4.992;2023-05-07T03:10:40;18.27;;;12.57;;
68216;SDS011;55037;52.354;4.992;2023-05-07T03:13:08;18.75;;;12.25;;
68216;SDS011;55037;52.354;4.992;2023-05-07T03:15:35;17.65;;;12.38;;
68216;SDS011;55037;52.354;4.992;2023-05-07T03:18:03;16.77;;;10.87;;
68216;SDS011;55037;52.354;4.992;2023-05-07T03:20:30;18.00;;;10.98;;
68216;SDS011;55037;52.354;4.992;2023-05-07T03:22:58;14.50;;;10.23;;
68216;SDS011;55037;52.354;4.992;2023-05-07T03:25:25;17.33;;;10.65;;
68216;SDS011;55037;52.354;4.992;2023-05-07T03:27:53;15.40;;;11.55;;
68216;SDS011;55037;52.354;4.992;2023-05-07T03:30:24;17.30;;;10.33;;
68216;SDS011;55037;52.354;4.992;2023-05-07T03:32:51;14.80;;;10.77;;
68216;SDS011;55037;52.354;4.992;2023-05-07T03:35:18;15.93;;;10.75;;
68216;SDS011;55037;52.354;4.992;2023-05-07T03:37:46;19.42;;;11.35;;
68216;SDS011;55037;52.354;4.992;2023-05-07T03:40:13;18.77;;;12.18;;
68216;SDS011;55037;52.354;4.992;2023-05-07T03:42:45;16.90;;;11.90;;
68216;SDS011;55037;52.354;4.992;2023-05-07T03:45:13;16.88;;;11.68;;
68216;SDS011;55037;52.354;4.992;2023-05-07T03:47:45;21.83;;;11.45;;
68216;SDS011;55037;52.354;4.992;2023-05-07T03:50:16;16.55;;;11.23;;
68216;SDS011;55037;52.354;4.992;2023-05-07T03:52:46;16.50;;;11.82;;
68216;SDS011;55037;52.354;4.992;2023-05-07T03:55:15;16.93;;;11.43;;
68216;SDS011;55037;52.354;4.992;2023-05-07T03:57:48;16.40;;;11.55;;
68216;SDS011;55037;52.354;4.992;2023-05-07T04:00:15;18.15;;;11.95;;
68216;SDS011;55037;52.354;4.992;2023-05-07T04:02:48;20.05;;;11.15;;
68216;SDS011;55037;52.354;4.992;2023-05-07T04:05:23;20.17;;;12.38;;
68216;SDS011;55037;52.354;4.992;2023-05-07T04:07:55;17.27;;;12.07;;
68216;SDS011;55037;52.354;4.992;2023-05-07T04:10:29;15.93;;;11.30;;
68216;SDS011;55037;52.354;4.992;2023-05-07T04:12:58;17.17;;;11.50;;
68216;SDS011;55037;52.354;4.992;2023-05-07T04:15:26;16.52;;;10.95;;
68216;SDS011;55037;52.354;4.992;2023-05-07T04:17:54;17.98;;;12.05;;
68216;SDS011;55037;52.354;4.992;2023-05-07T04:20:23;16.33;;;11.87;;
68216;SDS011;55037;52.354;4.992;2023-05-07T04:22:57;18.63;;;13.02;;
68216;SDS011;55037;52.354;4.992;2023-05-07T04:25:25;18.92;;;13.80;;
68216;SDS011;55037;52.354;4.992;2023-05-07T04:27:58;19.17;;;13.40;;
68216;SDS011;55037;52.354;4.992;2023-05-07T04:30:27;22.98;;;14.20;;
68216;SDS011;55037;52.354;4.992;2023-05-07T04:32:54;21.37;;;14.30;;
68216;SDS011;55037;52.354;4.992;2023-05-07T04:35:25;23.23;;;14.45;;
68216;SDS011;55037;52.354;4.992;2023-05-07T04:37:52;21.33;;;13.18;;
68216;SDS011;55037;52.354;4.992;2023-05-07T04:40:20;24.58;;;12.80;;
68216;SDS011;55037;52.354;4.992;2023-05-07T04:42:47;22.27;;;15.02;;
68216;SDS011;55037;52.354;4.992;2023-05-07T04:45:14;20.70;;;14.40;;
68216;SDS011;55037;52.354;4.992;2023-05-07T04:47:44;21.77;;;14.50;;
68216;SDS011;55037;52.354;4.992;2023-05-07T04:50:12;21.55;;;14.68;;
68216;SDS011;55037;52.354;4.992;2023-05-07T04:52:41;20.55;;;15.32;;
68216;SDS011;55037;52.354;4.992;2023-05-07T04:55:09;22.30;;;15.27;;
68216;SDS011;55037;52.354;4.992;2023-05-07T04:57:38;20.50;;;13.40;;
68216;SDS011;55037;52.354;4.992;2023-05-07T05:00:09;24.60;;;14.60;;
68216;SDS011;55037;52.354;4.992;2023-05-07T05:02:38;20.40;;;15.88;;
68216;SDS011;55037;52.354;4.992;2023-05-07T05:05:06;23.83;;;15.68;;
68216;SDS011;55037;52.354;4.992;2023-05-07T05:07:34;21.17;;;14.93;;
68216;SDS011;55037;52.354;4.992;2023-05-07T05:10:02;20.43;;;15.20;;
68216;SDS011;55037;52.354;4.992;2023-05-07T05:12:32;19.92;;;13.93;;
68216;SDS011;55037;52.354;4.992;2023-05-07T05:15:00;20.35;;;14.98;;
68216;SDS011;55037;52.354;4.992;2023-05-07T05:17:28;20.88;;;14.52;;
68216;SDS011;55037;52.354;4.992;2023-05-07T05:19:55;21.73;;;13.75;;
68216;SDS011;55037;52.354;4.992;2023-05-07T05:22:23;20.27;;;14.13;;
68216;SDS011;55037;52.354;4.992;2023-05-07T05:24:52;20.27;;;12.75;;
68216;SDS011;55037;52.354;4.992;2023-05-07T05:27:21;21.55;;;13.43;;
68216;SDS011;55037;52.354;4.992;2023-05-07T05:29:48;19.05;;;13.13;;
68216;SDS011;55037;52.354;4.992;2023-05-07T05:32:15;16.00;;;12.20;;
68216;SDS011;55037;52.354;4.992;2023-05-07T05:34:44;17.47;;;10.97;;
68216;SDS011;55037;52.354;4.992;2023-05-07T05:37:11;16.95;;;11.90;;
68216;SDS011;55037;52.354;4.992;2023-05-07T05:39:38;15.45;;;12.57;;
68216;SDS011;55037;52.354;4.992;2023-05-07T05:42:08;17.63;;;12.30;;
68216;SDS011;55037;52.354;4.992;2023-05-07T05:44:35;13.93;;;10.70;;
68216;SDS011;55037;52.354;4.992;2023-05-07T05:47:02;18.03;;;12.40;;
68216;SDS011;55037;52.354;4.992;2023-05-07T05:49:30;15.75;;;10.60;;
68216;SDS011;55037;52.354;4.992;2023-05-07T05:51:57;17.88;;;12.20;;
68216;SDS011;55037;52.354;4.992;2023-05-07T05:54:26;16.35;;;12.30;;
68216;SDS011;55037;52.354;4.992;2023-05-07T05:56:53;19.02;;;12.50;;
68216;SDS011;55037;52.354;4.992;2023-05-07T05:59:22;16.10;;;11.60;;
68216;SDS011;55037;52.354;4.992;2023-05-07T06:01:51;16.65;;;11.90;;
68216;SDS011;55037;52.354;4.992;2023-05-07T06:04:18;14.20;;;10.60;;
68216;SDS011;55037;52.354;4.992;2023-05-07T06:06:46;16.02;;;10.45;;
68216;SDS011;55037;52.354;4.992;2023-05-07T06:09:14;20.55;;;11.90;;
68216;SDS011;55037;52.354;4.992;2023-05-07T06:11:43;17.03;;;12.07;;
68216;SDS011;55037;52.354;4.992;2023-05-07T06:14:12;17.20;;;12.13;;
68216;SDS011;55037;52.354;4.992;2023-05-07T06:16:39;18.42;;;11.10;;
68216;SDS011;55037;52.354;4.992;2023-05-07T06:19:07;15.18;;;11.30;;
68216;SDS011;55037;52.354;4.992;2023-05-07T06:21:34;18.02;;;13.35;;
68216;SDS011;55037;52.354;4.992;2023-05-07T06:24:02;15.83;;;11.57;;
68216;SDS011;55037;52.354;4.992;2023-05-07T06:26:29;18.02;;;12.57;;
68216;SDS011;55037;52.354;4.992;2023-05-07T06:28:57;18.02;;;12.32;;
68216;SDS011;55037;52.354;4.992;2023-05-07T06:31:28;21.55;;;12.45;;
68216;SDS011;55037;52.354;4.992;2023-05-07T06:34:09;15.40;;;11.65;;
68216;SDS011;55037;52.354;4.992;2023-05-07T06:36:37;17.07;;;13.13;;
68216;SDS011;55037;52.354;4.992;2023-05-07T06:39:28;16.73;;;11.57;;
68216;SDS011;55037;52.354;4.992;2023-05-07T06:41:55;15.23;;;10.80;;
68216;SDS011;55037;52.354;4.992;2023-05-07T06:44:26;18.48;;;13.57;;
68216;SDS011;55037;52.354;4.992;2023-05-07T06:47:12;17.80;;;13.13;;
68216;SDS011;55037;52.354;4.992;2023-05-07T06:49:43;16.93;;;12.83;;
68216;SDS011;55037;52.354;4.992;2023-05-07T06:52:14;15.93;;;11.98;;
68216;SDS011;55037;52.354;4.992;2023-05-07T06:54:42;16.70;;;13.05;;
68216;SDS011;55037;52.354;4.992;2023-05-07T06:57:11;18.58;;;13.70;;
68216;SDS011;55037;52.354;4.992;2023-05-07T06:59:38;15.40;;;11.15;;
68216;SDS011;55037;52.354;4.992;2023-05-07T07:02:06;18.43;;;14.03;;
68216;SDS011;55037;52.354;4.992;2023-05-07T07:04:33;21.33;;;14.30;;
68216;SDS011;55037;52.354;4.992;2023-05-07T07:07:05;14.73;;;11.52;;
68216;SDS011;55037;52.354;4.992;2023-05-07T07:09:32;16.13;;;11.02;;
68216;SDS011;55037;52.354;4.992;2023-05-07T07:12:00;17.92;;;12.85;;
68216;SDS011;55037;52.354;4.992;2023-05-07T07:14:29;16.77;;;12.17;;
68216;SDS011;55037;52.354;4.992;2023-05-07T07:16:56;17.90;;;12.13;;
68216;SDS011;55037;52.354;4.992;2023-05-07T07:19:25;19.85;;;14.02;;
68216;SDS011;55037;52.354;4.992;2023-05-07T07:21:54;19.17;;;12.27;;
68216;SDS011;55037;52.354;4.992;2023-05-07T07:24:21;18.10;;;12.90;;
68216;SDS011;55037;52.354;4.992;2023-05-07T07:26:53;18.40;;;13.23;;
68216;SDS011;55037;52.354;4.992;2023-05-07T07:29:23;21.50;;;13.85;;
68216;SDS011;55037;52.354;4.992;2023-05-07T07:31:53;18.73;;;13.25;;
68216;SDS011;55037;52.354;4.992;2023-05-07T07:34:21;18.05;;;14.55;;
68216;SDS011;55037;52.354;4.992;2023-05-07T07:36:49;19.80;;;14.68;;
68216;SDS011;55037;52.354;4.992;2023-05-07T07:39:18;19.60;;;15.43;;
68216;SDS011;55037;52.354;4.992;2023-05-07T07:41:47;20.15;;;13.25;;
68216;SDS011;55037;52.354;4.992;2023-05-07T07:44:15;17.98;;;14.05;;
68216;SDS011;55037;52.354;4.992;2023-05-07T07:46:48;20.63;;;14.00;;
68216;SDS011;55037;52.354;4.992;2023-05-07T07:49:17;19.75;;;14.88;;
68216;SDS011;55037;52.354;4.992;2023-05-07T07:51:45;19.27;;;14.07;;
68216;SDS011;55037;52.354;4.992;2023-05-07T07:54:13;18.20;;;13.70;;
68216;SDS011;55037;52.354;4.992;2023-05-07T07:56:41;20.10;;;15.32;;
68216;SDS011;55037;52.354;4.992;2023-05-07T07:59:10;19.27;;;14.73;;
68216;SDS011;55037;52.354;4.992;2023-05-07T08:01:40;17.52;;;15.48;;
68216;SDS011;55037;52.354;4.992;2023-05-07T08:04:07;20.20;;;15.77;;
68216;SDS011;55037;52.354;4.992;2023-05-07T08:06:38;16.92;;;13.63;;
68216;SDS011;55037;52.354;4.992;2023-05-07T08:09:08;18.08;;;15.65;;
68216;SDS011;55037;52.354;4.992;2023-05-07T08:11:37;19.20;;;16.27;;
68216;SDS011;55037;52.354;4.992;2023-05-07T08:14:04;18.77;;;16.27;;
68216;SDS011;55037;52.354;4.992;2023-05-07T08:16:32;19.17;;;15.53;;
68216;SDS011;55037;52.354;4.992;2023-05-07T08:19:00;19.05;;;15.73;;
68216;SDS011;55037;52.354;4.992;2023-05-07T08:21:27;19.60;;;16.08;;
68216;SDS011;55037;52.354;4.992;2023-05-07T08:23:54;20.13;;;15.55;;
68216;SDS011;55037;52.354;4.992;2023-05-07T08:26:22;17.80;;;14.75;;
68216;SDS011;55037;52.354;4.992;2023-05-07T08:28:49;16.80;;;14.87;;
68216;SDS011;55037;52.354;4.992;2023-05-07T08:31:16;18.90;;;15.68;;
68216;SDS011;55037;52.354;4.992;2023-05-07T08:33:45;16.70;;;13.90;;
68216;SDS011;55037;52.354;4.992;2023-05-07T08:36:12;18.10;;;14.35;;
68216;SDS011;55037;52.354;4.992;2023-05-07T08:38:39;16.70;;;13.70;;
68216;SDS011;55037;52.354;4.992;2023-05-07T08:41:09;16.03;;;13.57;;
68216;SDS011;55037;52.354;4.992;2023-05-07T08:43:39;15.73;;;13.05;;
68216;SDS011;55037;52.354;4.992;2023-05-07T08:46:09;16.98;;;13.82;;
68216;SDS011;55037;52.354;4.992;2023-05-07T08:48:41;15.93;;;13.35;;
68216;SDS011;55037;52.354;4.992;2023-05-07T08:51:13;16.58;;;13.18;;
68216;SDS011;55037;52.354;4.992;2023-05-07T08:53:42;16.53;;;13.97;;
68216;SDS011;55037;52.354;4.992;2023-05-07T08:56:14;15.90;;;12.68;;
68216;SDS011;55037;52.354;4.992;2023-05-07T08:58:43;15.93;;;12.50;;
68216;SDS011;55037;52.354;4.992;2023-05-07T09:01:15;16.23;;;12.10;;
68216;SDS011;55037;52.354;4.992;2023-05-07T09:03:46;14.15;;;12.45;;
68216;SDS011;55037;52.354;4.992;2023-05-07T09:06:14;13.60;;;11.57;;
68216;SDS011;55037;52.354;4.992;2023-05-07T09:08:44;16.10;;;12.88;;
68216;SDS011;55037;52.354;4.992;2023-05-07T09:11:21;16.27;;;12.95;;
68216;SDS011;55037;52.354;4.992;2023-05-07T09:13:54;15.57;;;13.90;;
68216;SDS011;55037;52.354;4.992;2023-05-07T09:16:23;15.43;;;12.07;;
68216;SDS011;55037;52.354;4.992;2023-05-07T09:18:52;12.63;;;9.43;;
68216;SDS011;55037;52.354;4.992;2023-05-07T09:21:22;11.75;;;9.50;;
68216;SDS011;55037;52.354;4.992;2023-05-07T09:23:52;10.88;;;9.68;;
68216;SDS011;55037;52.354;4.992;2023-05-07T09:26:24;11.57;;;9.98;;
68216;SDS011;55037;52.354;4.992;2023-05-07T09:28:52;12.00;;;9.82;;
68216;SDS011;55037;52.354;4.992;2023-05-07T09:31:20;11.00;;;9.50;;
68216;SDS011;55037;52.354;4.992;2023-05-07T09:33:50;13.60;;;10.35;;
68216;SDS011;55037;52.354;4.992;2023-05-07T09:36:19;12.75;;;10.57;;
68216;SDS011;55037;52.354;4.992;2023-05-07T09:38:48;12.70;;;7.65;;
68216;SDS011;55037;52.354;4.992;2023-05-07T09:41:18;12.05;;;9.82;;
68216;SDS011;55037;52.354;4.992;2023-05-07T09:43:56;14.43;;;10.60;;
68216;SDS011;55037;52.354;4.992;2023-05-07T09:46:30;12.30;;;9.68;;
68216;SDS011;55037;52.354;4.992;2023-05-07T09:49:04;10.02;;;8.88;;
68216;SDS011;55037;52.354;4.992;2023-05-07T09:51:39;11.57;;;9.90;;
68216;SDS011;55037;52.354;4.992;2023-05-07T09:54:12;10.20;;;9.07;;
68216;SDS011;55037;52.354;4.992;2023-05-07T09:56:43;10.17;;;9.03;;
68216;SDS011;55037;52.354;4.992;2023-05-07T09:59:12;9.60;;;7.50;;
68216;SDS011;55037;52.354;4.992;2023-05-07T10:01:42;9.85;;;7.50;;
68216;SDS011;55037;52.354;4.992;2023-05-07T10:04:10;11.52;;;10.25;;
68216;SDS011;55037;52.354;4.992;2023-05-07T10:06:39;11.70;;;10.50;;
68216;SDS011;55037;52.354;4.992;2023-05-07T10:09:09;11.53;;;10.03;;
68216;SDS011;55037;52.354;4.992;2023-05-07T10:11:38;11.75;;;10.55;;
68216;SDS011;55037;52.354;4.992;2023-05-07T10:14:07;12.00;;;10.70;;
68216;SDS011;55037;52.354;4.992;2023-05-07T10:16:35;12.95;;;11.23;;
68216;SDS011;55037;52.354;4.992;2023-05-07T10:19:10;12.27;;;10.98;;
68216;SDS011;55037;52.354;4.992;2023-05-07T10:21:44;13.17;;;11.10;;
68216;SDS011;55037;52.354;4.992;2023-05-07T10:26:52;15.02;;;13.55;;
68216;SDS011;55037;52.354;4.992;2023-05-07T10:32:12;14.45;;;12.95;;
68216;SDS011;55037;52.354;4.992;2023-05-07T10:35:16;15.00;;;12.67;;
68216;SDS011;55037;52.354;4.992;2023-05-07T10:37:48;15.23;;;11.65;;
68216;SDS011;55037;52.354;4.992;2023-05-07T10:40:16;14.43;;;12.93;;
68216;SDS011;55037;52.354;4.992;2023-05-07T10:42:54;16.85;;;13.25;;
68216;SDS011;55037;52.354;4.992;2023-05-07T10:45:28;15.18;;;12.20;;
68216;SDS011;55037;52.354;4.992;2023-05-07T10:48:16;14.73;;;12.47;;
68216;SDS011;55037;52.354;4.992;2023-05-07T10:51:20;12.60;;;11.02;;
68216;SDS011;55037;52.354;4.992;2023-05-07T10:56:46;12.60;;;11.30;;
68216;SDS011;55037;52.354;4.992;2023-05-07T11:02:02;12.27;;;10.93;;
68216;SDS011;55037;52.354;4.992;2023-05-07T11:04:39;12.93;;;10.95;;
68216;SDS011;55037;52.354;4.992;2023-05-07T11:07:28;11.90;;;10.48;;
68216;SDS011;55037;52.354;4.992;2023-05-07T11:10:03;11.50;;;10.32;;
68216;SDS011;55037;52.354;4.992;2023-05-07T11:13:07;12.75;;;10.55;;
68216;SDS011;55037;52.354;4.992;2023-05-07T11:15:45;12.50;;;11.20;;
68216;SDS011;55037;52.354;4.992;2023-05-07T11:18:24;13.07;;;10.93;;
68216;SDS011;55037;52.354;4.992;2023-05-07T11:21:34;13.30;;;10.05;;
68216;SDS011;55037;52.354;4.992;2023-05-07T11:24:15;12.57;;;10.15;;
68216;SDS011;55037;52.354;4.992;2023-05-07T11:26:51;13.23;;;10.68;;
68216;SDS011;55037;52.354;4.992;2023-05-07T11:29:21;11.27;;;10.07;;
68216;SDS011;55037;52.354;4.992;2023-05-07T11:31:54;12.65;;;10.25;;
68216;SDS011;55037;52.354;4.992;2023-05-07T11:34:26;13.25;;;11.25;;
68216;SDS011;55037;52.354;4.992;2023-05-07T11:36:56;12.38;;;10.98;;
68216;SDS011;55037;52.354;4.992;2023-05-07T11:39:38;13.50;;;10.77;;
68216;SDS011;55037;52.354;4.992;2023-05-07T11:42:05;12.37;;;10.10;;
68216;SDS011;55037;52.354;4.992;2023-05-07T11:44:44;10.82;;;9.48;;
68216;SDS011;55037;52.354;4.992;2023-05-07T11:47:19;12.48;;;10.57;;
68216;SDS011;55037;52.354;4.992;2023-05-07T11:49:51;11.65;;;9.75;;
68216;SDS011;55037;52.354;4.992;2023-05-07T11:52:20;12.95;;;9.38;;
68216;SDS011;55037;52.354;4.992;2023-05-07T11:54:57;13.17;;;9.67;;
68216;SDS011;55037;52.354;4.992;2023-05-07T11:57:26;11.95;;;8.98;;
68216;SDS011;55037;52.354;4.992;2023-05-07T11:59:54;11.40;;;8.52;;
68216;SDS011;55037;52.354;4.992;2023-05-07T12:02:22;11.80;;;8.75;;
68216;SDS011;55037;52.354;4.992;2023-05-07T12:04:52;10.73;;;8.52;;
68216;SDS011;55037;52.354;4.992;2023-05-07T12:07:20;11.43;;;7.43;;
68216;SDS011;55037;52.354;4.992;2023-05-07T12:09:47;11.57;;;8.18;;
68216;SDS011;55037;52.354;4.992;2023-05-07T12:12:15;13.63;;;8.10;;
68216;SDS011;55037;52.354;4.992;2023-05-07T12:14:44;10.77;;;8.20;;
68216;SDS011;55037;52.354;4.992;2023-05-07T12:17:13;10.88;;;7.95;;
68216;SDS011;55037;52.354;4.992;2023-05-07T12:19:42;10.27;;;7.27;;
68216;SDS011;55037;52.354;4.992;2023-05-07T12:22:11;11.75;;;6.80;;
68216;SDS011;55037;52.354;4.992;2023-05-07T12:27:16;10.60;;;6.72;;
68216;SDS011;55037;52.354;4.992;2023-05-07T12:29:46;9.60;;;7.75;;
68216;SDS011;55037;52.354;4.992;2023-05-07T12:32:14;8.90;;;6.93;;
68216;SDS011;55037;52.354;4.992;2023-05-07T12:34:43;14.77;;;7.32;;
68216;SDS011;55037;52.354;4.992;2023-05-07T12:37:12;11.02;;;9.82;;
68216;SDS011;55037;52.354;4.992;2023-05-07T12:39:48;14.05;;;9.05;;
68216;SDS011;55037;52.354;4.992;2023-05-07T12:42:19;15.00;;;11.13;;
68216;SDS011;55037;52.354;4.992;2023-05-07T12:44:52;16.03;;;12.27;;
68216;SDS011;55037;52.354;4.992;2023-05-07T12:47:19;17.65;;;11.25;;
68216;SDS011;55037;52.354;4.992;2023-05-07T12:49:47;14.93;;;13.00;;
68216;SDS011;55037;52.354;4.992;2023-05-07T12:52:14;14.68;;;13.07;;
68216;SDS011;55037;52.354;4.992;2023-05-07T13:01:45;15.18;;;11.88;;
68216;SDS011;55037;52.354;4.992;2023-05-07T13:04:12;12.63;;;10.83;;
68216;SDS011;55037;52.354;4.992;2023-05-07T13:06:39;17.90;;;11.23;;
68216;SDS011;55037;52.354;4.992;2023-05-07T13:09:07;13.70;;;11.10;;
68216;SDS011;55037;52.354;4.992;2023-05-07T13:11:34;15.52;;;12.68;;
68216;SDS011;55037;52.354;4.992;2023-05-07T13:14:01;14.93;;;12.25;;
68216;SDS011;55037;52.354;4.992;2023-05-07T13:16:29;15.63;;;13.93;;
68216;SDS011;55037;52.354;4.992;2023-05-07T13:18:56;13.85;;;11.63;;
68216;SDS011;55037;52.354;4.992;2023-05-07T13:21:23;15.00;;;12.60;;
68216;SDS011;55037;52.354;4.992;2023-05-07T13:23:51;16.25;;;12.73;;
68216;SDS011;55037;52.354;4.992;2023-05-07T13:26:18;15.45;;;13.80;;
68216;SDS011;55037;52.354;4.992;2023-05-07T13:28:55;15.83;;;13.43;;
68216;SDS011;55037;52.354;4.992;2023-05-07T13:31:23;21.20;;;14.35;;
68216;SDS011;55037;52.354;4.992;2023-05-07T13:33:51;19.42;;;15.43;;
68216;SDS011;55037;52.354;4.992;2023-05-07T13:36:19;16.50;;;13.73;;
68216;SDS011;55037;52.354;4.992;2023-05-07T13:38:46;18.98;;;14.43;;
68216;SDS011;55037;52.354;4.992;2023-05-07T13:41:13;22.47;;;15.33;;
68216;SDS011;55037;52.354;4.992;2023-05-07T13:43:41;18.70;;;14.25;;
68216;SDS011;55037;52.354;4.992;2023-05-07T13:46:08;19.95;;;13.80;;
68216;SDS011;55037;52.354;4.992;2023-05-07T13:48:36;18.50;;;13.95;;
68216;SDS011;55037;52.354;4.992;2023-05-07T13:51:03;19.48;;;14.23;;
68216;SDS011;55037;52.354;4.992;2023-05-07T13:53:31;19.37;;;14.73;;
68216;SDS011;55037;52.354;4.992;2023-05-07T13:55:58;21.55;;;15.32;;
68216;SDS011;55037;52.354;4.992;2023-05-07T13:58:25;17.20;;;14.15;;
68216;SDS011;55037;52.354;4.992;2023-05-07T14:00:52;18.98;;;14.32;;
68216;SDS011;55037;52.354;4.992;2023-05-07T14:03:20;19.67;;;14.65;;
68216;SDS011;55037;52.354;4.992;2023-05-07T14:05:47;19.97;;;16.03;;
68216;SDS011;55037;52.354;4.992;2023-05-07T14:08:16;27.13;;;17.42;;
68216;SDS011;55037;52.354;4.992;2023-05-07T14:10:46;27.05;;;17.45;;
68216;SDS011;55037;52.354;4.992;2023-05-07T14:13:13;23.30;;;18.02;;
68216;SDS011;55037;52.354;4.992;2023-05-07T14:15:41;22.52;;;17.17;;
68216;SDS011;55037;52.354;4.992;2023-05-07T14:18:12;19.40;;;15.10;;
68216;SDS011;55037;52.354;4.992;2023-05-07T14:20:40;11.93;;;9.48;;
68216;SDS011;55037;52.354;4.992;2023-05-07T14:23:07;8.75;;;6.20;;
68216;SDS011;55037;52.354;4.992;2023-05-07T14:25:34;8.10;;;4.80;;
68216;SDS011;55037;52.354;4.992;2023-05-07T14:28:02;8.55;;;5.30;;
68216;SDS011;55037;52.354;4.992;2023-05-07T14:30:29;7.80;;;4.35;;
68216;SDS011;55037;52.354;4.992;2023-05-07T14:32:56;6.65;;;3.40;;
68216;SDS011;55037;52.354;4.992;2023-05-07T14:35:23;9.57;;;3.05;;
68216;SDS011;55037;52.354;4.992;2023-05-07T14:37:50;9.43;;;3.63;;
68216;SDS011;55037;52.354;4.992;2023-05-07T14:40:18;9.10;;;2.78;;
68216;SDS011;55037;52.354;4.992;2023-05-07T14:42:45;8.30;;;3.22;;
68216;SDS011;55037;52.354;4.992;2023-05-07T14:45:12;5.65;;;2.75;;
68216;SDS011;55037;52.354;4.992;2023-05-07T14:47:40;6.18;;;2.85;;
68216;SDS011;55037;52.354;4.992;2023-05-07T14:50:07;17.85;;;3.90;;
68216;SDS011;55037;52.354;4.992;2023-05-07T14:52:35;12.27;;;3.97;;
68216;SDS011;55037;52.354;4.992;2023-05-07T14:55:02;6.53;;;3.17;;
68216;SDS011;55037;52.354;4.992;2023-05-07T14:57:30;10.38;;;3.65;;